SWA1995 KSTL-MMUN
Flight info
| Callsign | SWA1995 |
|---|---|
| Flight time | 2h 37m |
| Altitude | 36000 |
| Route | CHUUC6 ARG DCT BAKRE DCT RUCBO DCT LEV A770 KEHLI UL209 BETAS DCT VOMAR |
| Aircraft | B38M/M-SADE2E3GHIJ4J7P2RWZ/LB1D1 |
Departure
| Time | 2026-05-05 15:09 |
|---|---|
| Airport | St. Louis Lambert International Airport (KSTL) |
Arrival
| Time | 2026-05-05 17:46 |
|---|---|
| Airport | Cancún International Airport (MMUN) |
| Time | Latitude | Longitude | Altitude | Speed | Heading |
|---|---|---|---|---|---|
| 2026-05-05 14:50 | 38.73787 | -90.35794 | 575 ft | 0 kts | 153° |
| 2026-05-05 15:02 | 38.73802 | -90.35803 | 575 ft | 4 kts | 159° |
| 2026-05-05 15:02 | 38.73828 | -90.35814 | 575 ft | 4 kts | 161° |
| 2026-05-05 15:02 | 38.73847 | -90.35825 | 575 ft | 3 kts | 153° |
| 2026-05-05 15:03 | 38.73871 | -90.35840 | 577 ft | 3 kts | 149° |
| 2026-05-05 15:03 | 38.73875 | -90.35843 | 576 ft | 1 kts | 148° |
| 2026-05-05 15:06 | 38.73871 | -90.35837 | 574 ft | 3 kts | 131° |
| 2026-05-05 15:06 | 38.73872 | -90.35785 | 574 ft | 11 kts | 66° |
| 2026-05-05 15:07 | 38.73926 | -90.35666 | 580 ft | 19 kts | 51° |
| 2026-05-05 15:07 | 38.74046 | -90.35561 | 582 ft | 22 kts | 57° |
| 2026-05-05 15:07 | 38.74012 | -90.35403 | 584 ft | 19 kts | 124° |
| 2026-05-05 15:07 | 38.73934 | -90.35245 | 588 ft | 24 kts | 124° |
| 2026-05-05 15:08 | 38.73845 | -90.35063 | 595 ft | 24 kts | 121° |
| 2026-05-05 15:08 | 38.73755 | -90.34881 | 600 ft | 24 kts | 121° |
| 2026-05-05 15:08 | 38.73725 | -90.34699 | 599 ft | 20 kts | 44° |
| 2026-05-05 15:08 | 38.73830 | -90.34752 | 599 ft | 19 kts | 298° |
| 2026-05-05 15:09 | 38.73913 | -90.34928 | 595 ft | 36 kts | 303° |
| 2026-05-05 15:09 | 38.74177 | -90.35455 | 583 ft | 108 kts | 302° |
| 2026-05-05 15:09 | 38.74704 | -90.36509 | 588 ft | 168 kts | 303° |
| 2026-05-05 15:09 | 38.75338 | -90.37784 | 1251 ft | 174 kts | 305° |
| 2026-05-05 15:10 | 38.75982 | -90.39094 | 1995 ft | 182 kts | 304° |
| 2026-05-05 15:10 | 38.76685 | -90.40552 | 2459 ft | 204 kts | 304° |
| 2026-05-05 15:10 | 38.77486 | -90.42193 | 2893 ft | 230 kts | 303° |
| 2026-05-05 15:10 | 38.78212 | -90.44088 | 3502 ft | 252 kts | 283° |
| 2026-05-05 15:11 | 38.78065 | -90.46332 | 4399 ft | 258 kts | 249° |
| 2026-05-05 15:11 | 38.77104 | -90.48294 | 5401 ft | 263 kts | 236° |
| 2026-05-05 15:11 | 38.76046 | -90.50188 | 6426 ft | 262 kts | 236° |
| 2026-05-05 15:11 | 38.74735 | -90.51832 | 7363 ft | 269 kts | 212° |
| 2026-05-05 15:12 | 38.73046 | -90.52740 | 8242 ft | 275 kts | 202° |
| 2026-05-05 15:12 | 38.72864 | -90.52824 | 8330 ft | 275 kts | 202° |
| 2026-05-05 15:12 | 38.71043 | -90.53671 | 9187 ft | 280 kts | 202° |
| 2026-05-05 15:12 | 38.69200 | -90.54492 | 10073 ft | 283 kts | 198° |
| 2026-05-05 15:13 | 38.67190 | -90.54775 | 10651 ft | 301 kts | 184° |
| 2026-05-05 15:13 | 38.65030 | -90.54847 | 11126 ft | 319 kts | 185° |
| 2026-05-05 15:13 | 38.62766 | -90.54928 | 11687 ft | 331 kts | 186° |
| 2026-05-05 15:13 | 38.60434 | -90.55011 | 12400 ft | 338 kts | 186° |
| 2026-05-05 15:14 | 38.58073 | -90.55091 | 13239 ft | 342 kts | 187° |
| 2026-05-05 15:14 | 38.55676 | -90.55173 | 13985 ft | 348 kts | 187° |
| 2026-05-05 15:14 | 38.53234 | -90.55257 | 14770 ft | 353 kts | 187° |
| 2026-05-05 15:14 | 38.50754 | -90.55342 | 15536 ft | 359 kts | 187° |
| 2026-05-05 15:15 | 38.48234 | -90.55429 | 16268 ft | 365 kts | 187° |
| 2026-05-05 15:15 | 38.45685 | -90.55518 | 16977 ft | 371 kts | 187° |
| 2026-05-05 15:15 | 38.43082 | -90.55604 | 17676 ft | 376 kts | 188° |
| 2026-05-05 15:15 | 38.40455 | -90.55697 | 18318 ft | 380 kts | 188° |
| 2026-05-05 15:16 | 38.37792 | -90.55786 | 18988 ft | 382 kts | 188° |
| 2026-05-05 15:16 | 38.35123 | -90.55876 | 19580 ft | 387 kts | 189° |
| 2026-05-05 15:16 | 38.32406 | -90.55969 | 20248 ft | 391 kts | 189° |
| 2026-05-05 15:16 | 38.29684 | -90.56061 | 20951 ft | 393 kts | 189° |
| 2026-05-05 15:17 | 38.26935 | -90.56155 | 21565 ft | 396 kts | 189° |
| 2026-05-05 15:17 | 38.24173 | -90.56249 | 22188 ft | 399 kts | 189° |
| 2026-05-05 15:17 | 38.21385 | -90.56344 | 22810 ft | 401 kts | 189° |
| 2026-05-05 15:17 | 38.18580 | -90.56438 | 23363 ft | 405 kts | 190° |
| 2026-05-05 15:18 | 38.15798 | -90.56534 | 23936 ft | 406 kts | 190° |
| 2026-05-05 15:18 | 38.12962 | -90.56630 | 24500 ft | 409 kts | 190° |
| 2026-05-05 15:18 | 38.10103 | -90.56727 | 24995 ft | 412 kts | 191° |
| 2026-05-05 15:18 | 38.07255 | -90.57012 | 25448 ft | 412 kts | 194° |
| 2026-05-05 15:19 | 38.04345 | -90.57351 | 25924 ft | 416 kts | 194° |
| 2026-05-05 15:19 | 38.01489 | -90.57669 | 26368 ft | 420 kts | 194° |
| 2026-05-05 15:19 | 37.98570 | -90.57987 | 26808 ft | 423 kts | 194° |
| 2026-05-05 15:19 | 37.95617 | -90.58308 | 27181 ft | 428 kts | 194° |
| 2026-05-05 15:20 | 37.92653 | -90.58628 | 27585 ft | 431 kts | 194° |
| 2026-05-05 15:20 | 37.89619 | -90.58956 | 27991 ft | 434 kts | 194° |
| 2026-05-05 15:20 | 37.86591 | -90.59282 | 28390 ft | 438 kts | 194° |
| 2026-05-05 15:20 | 37.83585 | -90.59606 | 28764 ft | 441 kts | 194° |
| 2026-05-05 15:21 | 37.80474 | -90.59941 | 29144 ft | 444 kts | 194° |
| 2026-05-05 15:21 | 37.77385 | -90.60273 | 29518 ft | 447 kts | 194° |
| 2026-05-05 15:21 | 37.74275 | -90.60608 | 29867 ft | 450 kts | 194° |
| 2026-05-05 15:21 | 37.71181 | -90.60940 | 30222 ft | 453 kts | 194° |
| 2026-05-05 15:22 | 37.68026 | -90.61279 | 30554 ft | 456 kts | 194° |
| 2026-05-05 15:22 | 37.64854 | -90.61619 | 30873 ft | 459 kts | 195° |
| 2026-05-05 15:22 | 37.61661 | -90.61961 | 31193 ft | 462 kts | 195° |
| 2026-05-05 15:22 | 37.58443 | -90.62305 | 31525 ft | 465 kts | 195° |
| 2026-05-05 15:23 | 37.55214 | -90.62650 | 31833 ft | 468 kts | 195° |
| 2026-05-05 15:23 | 37.51970 | -90.62997 | 32234 ft | 468 kts | 195° |
| 2026-05-05 15:23 | 37.48676 | -90.63349 | 32652 ft | 468 kts | 195° |
| 2026-05-05 15:23 | 37.45483 | -90.63689 | 33051 ft | 468 kts | 196° |
| 2026-05-05 15:24 | 37.42240 | -90.64034 | 33439 ft | 468 kts | 196° |
| 2026-05-05 15:24 | 37.38996 | -90.64380 | 33834 ft | 467 kts | 196° |
| 2026-05-05 15:24 | 37.35759 | -90.64724 | 34213 ft | 467 kts | 197° |
| 2026-05-05 15:24 | 37.32518 | -90.65069 | 34611 ft | 467 kts | 197° |
| 2026-05-05 15:25 | 37.29280 | -90.65412 | 35011 ft | 466 kts | 197° |
| 2026-05-05 15:25 | 37.26054 | -90.65755 | 35395 ft | 465 kts | 197° |
| 2026-05-05 15:25 | 37.22831 | -90.66097 | 35756 ft | 465 kts | 197° |
| 2026-05-05 15:26 | 37.16551 | -90.67324 | 35913 ft | 450 kts | 204° |
| 2026-05-05 15:26 | 37.10425 | -90.68955 | 35873 ft | 449 kts | 205° |
| 2026-05-05 15:27 | 37.04309 | -90.70598 | 35875 ft | 450 kts | 205° |
| 2026-05-05 15:27 | 36.98196 | -90.72240 | 35860 ft | 449 kts | 205° |
| 2026-05-05 15:28 | 36.92079 | -90.73880 | 35863 ft | 450 kts | 205° |
| 2026-05-05 15:28 | 36.85961 | -90.75518 | 35864 ft | 451 kts | 205° |
| 2026-05-05 15:29 | 36.79816 | -90.77160 | 35866 ft | 452 kts | 205° |
| 2026-05-05 15:29 | 36.73677 | -90.78798 | 35855 ft | 452 kts | 205° |
| 2026-05-05 15:30 | 36.67527 | -90.80436 | 35864 ft | 452 kts | 205° |
| 2026-05-05 15:30 | 36.61382 | -90.82070 | 35859 ft | 452 kts | 205° |
| 2026-05-05 15:31 | 36.55231 | -90.83704 | 35863 ft | 452 kts | 205° |
| 2026-05-05 15:31 | 36.49085 | -90.85333 | 35859 ft | 452 kts | 205° |
| 2026-05-05 15:32 | 36.42939 | -90.86959 | 35859 ft | 452 kts | 205° |
| 2026-05-05 15:32 | 36.36795 | -90.88583 | 35848 ft | 452 kts | 205° |
| 2026-05-05 15:33 | 36.30644 | -90.90205 | 35851 ft | 452 kts | 205° |
| 2026-05-05 15:33 | 36.24495 | -90.91825 | 35848 ft | 452 kts | 205° |
| 2026-05-05 15:34 | 36.18340 | -90.93444 | 35846 ft | 452 kts | 205° |
| 2026-05-05 15:34 | 36.12184 | -90.95054 | 35844 ft | 454 kts | 203° |
| 2026-05-05 15:34 | 36.08969 | -90.95373 | 35841 ft | 473 kts | 192° |
| 2026-05-05 15:35 | 36.05680 | -90.95379 | 35834 ft | 473 kts | 193° |
| 2026-05-05 15:35 | 35.99091 | -90.95446 | 35844 ft | 474 kts | 193° |
| 2026-05-05 15:36 | 35.92478 | -90.95492 | 35841 ft | 478 kts | 193° |
| 2026-05-05 15:36 | 35.85822 | -90.95536 | 35840 ft | 478 kts | 193° |
| 2026-05-05 15:37 | 35.79165 | -90.95580 | 35843 ft | 478 kts | 193° |
| 2026-05-05 15:37 | 35.72507 | -90.95624 | 35857 ft | 478 kts | 193° |
| 2026-05-05 15:38 | 35.65856 | -90.95666 | 35856 ft | 478 kts | 193° |
| 2026-05-05 15:38 | 35.59201 | -90.95710 | 35860 ft | 478 kts | 193° |
| 2026-05-05 15:39 | 35.52539 | -90.95755 | 35852 ft | 478 kts | 193° |
| 2026-05-05 15:39 | 35.45931 | -90.95798 | 35851 ft | 478 kts | 193° |
| 2026-05-05 15:40 | 35.39279 | -90.95841 | 35860 ft | 478 kts | 193° |
| 2026-05-05 15:40 | 35.32611 | -90.95884 | 35865 ft | 480 kts | 193° |
| 2026-05-05 15:41 | 35.25928 | -90.95928 | 35875 ft | 480 kts | 193° |
| 2026-05-05 15:41 | 35.19244 | -90.95971 | 35862 ft | 480 kts | 193° |
| 2026-05-05 15:42 | 35.12559 | -90.96014 | 35882 ft | 480 kts | 193° |
| 2026-05-05 15:42 | 35.05871 | -90.96058 | 35882 ft | 480 kts | 193° |
| 2026-05-05 15:43 | 34.99182 | -90.96101 | 35876 ft | 481 kts | 193° |
| 2026-05-05 15:43 | 34.92496 | -90.96144 | 35875 ft | 481 kts | 193° |
| 2026-05-05 15:44 | 34.85805 | -90.96187 | 35881 ft | 481 kts | 193° |
| 2026-05-05 15:44 | 34.79119 | -90.96230 | 35873 ft | 481 kts | 193° |
| 2026-05-05 15:45 | 34.72424 | -90.96273 | 35870 ft | 482 kts | 193° |
| 2026-05-05 15:45 | 34.65710 | -90.96316 | 35883 ft | 483 kts | 193° |
| 2026-05-05 15:46 | 34.58974 | -90.96357 | 35790 ft | 482 kts | 193° |
| 2026-05-05 15:46 | 34.53357 | -90.96395 | 35909 ft | 484 kts | 193° |
| 2026-05-05 15:47 | 34.46675 | -90.96437 | 35897 ft | 482 kts | 193° |
| 2026-05-05 15:47 | 34.39964 | -90.96480 | 35906 ft | 483 kts | 193° |
| 2026-05-05 15:48 | 34.33234 | -90.96523 | 35906 ft | 485 kts | 193° |
| 2026-05-05 15:48 | 34.26488 | -90.96566 | 35905 ft | 485 kts | 193° |
| 2026-05-05 15:49 | 34.19739 | -90.96608 | 35908 ft | 485 kts | 193° |
| 2026-05-05 15:49 | 34.12993 | -90.96651 | 35903 ft | 485 kts | 193° |
| 2026-05-05 15:50 | 34.06245 | -90.96694 | 35908 ft | 484 kts | 193° |
| 2026-05-05 15:50 | 33.99490 | -90.96736 | 35907 ft | 485 kts | 193° |
| 2026-05-05 15:51 | 33.92726 | -90.96779 | 35916 ft | 487 kts | 193° |
| 2026-05-05 15:51 | 33.85873 | -90.96255 | 35928 ft | 498 kts | 186° |
| 2026-05-05 15:52 | 33.78967 | -90.95366 | 35904 ft | 499 kts | 185° |
| 2026-05-05 15:52 | 33.72068 | -90.94443 | 35910 ft | 499 kts | 185° |
| 2026-05-05 15:53 | 33.65108 | -90.93511 | 35911 ft | 500 kts | 185° |
| 2026-05-05 15:53 | 33.58243 | -90.92593 | 35917 ft | 500 kts | 185° |
| 2026-05-05 15:54 | 33.51329 | -90.91671 | 35922 ft | 500 kts | 185° |
| 2026-05-05 15:54 | 33.44426 | -90.90751 | 35921 ft | 499 kts | 185° |
| 2026-05-05 15:55 | 33.37533 | -90.89835 | 35928 ft | 498 kts | 185° |
| 2026-05-05 15:55 | 33.30619 | -90.88917 | 35925 ft | 500 kts | 185° |
| 2026-05-05 15:56 | 33.23715 | -90.88000 | 35922 ft | 499 kts | 185° |
| 2026-05-05 15:56 | 33.16813 | -90.87086 | 35925 ft | 499 kts | 185° |
| 2026-05-05 15:57 | 33.09921 | -90.86176 | 35933 ft | 499 kts | 185° |
| 2026-05-05 15:57 | 33.03014 | -90.85264 | 35934 ft | 499 kts | 185° |
| 2026-05-05 15:58 | 32.96106 | -90.84354 | 35935 ft | 499 kts | 185° |
| 2026-05-05 15:58 | 32.89197 | -90.83445 | 35937 ft | 501 kts | 185° |
| 2026-05-05 15:59 | 32.82271 | -90.82535 | 35943 ft | 501 kts | 185° |
| 2026-05-05 15:59 | 32.75345 | -90.81627 | 35946 ft | 501 kts | 185° |
| 2026-05-05 16:00 | 32.68424 | -90.80720 | 35950 ft | 500 kts | 185° |
| 2026-05-05 16:00 | 32.61501 | -90.79816 | 35953 ft | 500 kts | 185° |
| 2026-05-05 16:01 | 32.54571 | -90.78911 | 35963 ft | 500 kts | 185° |
| 2026-05-05 16:01 | 32.47653 | -90.78009 | 35960 ft | 500 kts | 185° |
| 2026-05-05 16:02 | 32.40737 | -90.77109 | 35952 ft | 500 kts | 185° |
| 2026-05-05 16:02 | 32.33815 | -90.76210 | 35954 ft | 500 kts | 185° |
| 2026-05-05 16:03 | 32.26890 | -90.75312 | 35954 ft | 501 kts | 185° |
| 2026-05-05 16:03 | 32.19971 | -90.74415 | 35956 ft | 500 kts | 185° |
| 2026-05-05 16:04 | 32.13049 | -90.73520 | 35950 ft | 500 kts | 185° |
| 2026-05-05 16:04 | 32.06136 | -90.72627 | 35961 ft | 500 kts | 185° |
| 2026-05-05 16:05 | 31.99214 | -90.71735 | 35962 ft | 501 kts | 185° |
| 2026-05-05 16:05 | 31.92330 | -90.70848 | 35967 ft | 501 kts | 184° |
| 2026-05-05 16:06 | 31.85402 | -90.69958 | 35970 ft | 501 kts | 184° |
| 2026-05-05 16:06 | 31.78470 | -90.69068 | 35984 ft | 501 kts | 184° |
| 2026-05-05 16:07 | 31.71539 | -90.68180 | 35989 ft | 501 kts | 184° |
| 2026-05-05 16:07 | 31.64610 | -90.67293 | 35992 ft | 501 kts | 184° |
| 2026-05-05 16:08 | 31.57678 | -90.66407 | 36003 ft | 501 kts | 184° |
| 2026-05-05 16:08 | 31.50749 | -90.65523 | 36002 ft | 501 kts | 184° |
| 2026-05-05 16:09 | 31.43821 | -90.64640 | 36002 ft | 501 kts | 184° |
| 2026-05-05 16:09 | 31.36838 | -90.63109 | 36012 ft | 509 kts | 178° |
| 2026-05-05 16:10 | 31.29901 | -90.61410 | 36004 ft | 510 kts | 178° |
| 2026-05-05 16:10 | 31.23006 | -90.59718 | 36000 ft | 509 kts | 178° |
| 2026-05-05 16:11 | 31.16072 | -90.58019 | 35997 ft | 509 kts | 178° |
| 2026-05-05 16:12 | 31.02209 | -90.54629 | 35997 ft | 510 kts | 178° |
| 2026-05-05 16:13 | 30.84845 | -90.50398 | 36000 ft | 510 kts | 177° |
| 2026-05-05 16:13 | 30.77909 | -90.48713 | 35998 ft | 510 kts | 177° |
| 2026-05-05 16:14 | 30.64028 | -90.45345 | 36008 ft | 509 kts | 177° |
| 2026-05-05 16:15 | 30.50154 | -90.41991 | 36010 ft | 510 kts | 177° |
| 2026-05-05 16:16 | 30.36259 | -90.38641 | 36009 ft | 510 kts | 177° |
| 2026-05-05 16:17 | 30.25840 | -90.36136 | 36007 ft | 510 kts | 177° |
| 2026-05-05 16:18 | 30.15429 | -90.33637 | 36010 ft | 510 kts | 177° |
| 2026-05-05 16:19 | 30.04996 | -90.31139 | 36010 ft | 511 kts | 177° |
| 2026-05-05 16:19 | 29.94565 | -90.28647 | 36009 ft | 510 kts | 177° |
| 2026-05-05 16:20 | 29.80661 | -90.25333 | 36011 ft | 510 kts | 177° |
| 2026-05-05 16:22 | 29.63291 | -90.21206 | 36017 ft | 510 kts | 176° |
| 2026-05-05 16:23 | 29.49405 | -90.17918 | 36029 ft | 509 kts | 176° |
| 2026-05-05 16:23 | 29.39007 | -90.15461 | 36028 ft | 509 kts | 176° |
| 2026-05-05 16:24 | 29.32081 | -90.13827 | 36026 ft | 508 kts | 176° |
| 2026-05-05 16:25 | 29.21692 | -90.11381 | 36027 ft | 507 kts | 176° |
| 2026-05-05 16:25 | 29.14790 | -90.10248 | 36039 ft | 493 kts | 186° |
| 2026-05-05 16:25 | 29.11353 | -90.10067 | 36020 ft | 496 kts | 186° |
| 2026-05-05 16:26 | 28.97582 | -90.09296 | 36026 ft | 495 kts | 185° |
| 2026-05-05 16:27 | 28.90708 | -90.08916 | 36027 ft | 495 kts | 185° |
| 2026-05-05 16:27 | 28.83835 | -90.08538 | 36027 ft | 494 kts | 185° |
| 2026-05-05 16:28 | 28.78129 | -90.08223 | 36024 ft | 494 kts | 185° |
| 2026-05-05 16:28 | 28.71253 | -90.07844 | 36029 ft | 495 kts | 185° |
| 2026-05-05 16:29 | 28.63260 | -90.07405 | 36026 ft | 495 kts | 185° |
| 2026-05-05 16:29 | 28.56387 | -90.07027 | 36026 ft | 494 kts | 185° |
| 2026-05-05 16:30 | 28.50633 | -90.06711 | 36027 ft | 494 kts | 185° |
| 2026-05-05 16:30 | 28.43759 | -90.06335 | 36028 ft | 495 kts | 185° |
| 2026-05-05 16:31 | 28.36877 | -90.05959 | 36028 ft | 494 kts | 185° |
| 2026-05-05 16:31 | 28.30000 | -90.05583 | 36026 ft | 495 kts | 185° |
| 2026-05-05 16:32 | 28.23121 | -90.05191 | 36026 ft | 496 kts | 184° |
| 2026-05-05 16:32 | 28.16237 | -90.04786 | 36025 ft | 496 kts | 184° |
| 2026-05-05 16:33 | 28.09348 | -90.04381 | 36028 ft | 495 kts | 184° |
| 2026-05-05 16:33 | 28.02504 | -90.03980 | 36025 ft | 496 kts | 184° |
| 2026-05-05 16:34 | 27.95620 | -90.03577 | 36026 ft | 495 kts | 184° |
| 2026-05-05 16:34 | 27.88682 | -90.03171 | 36028 ft | 495 kts | 184° |
| 2026-05-05 16:35 | 27.81855 | -90.02772 | 36029 ft | 496 kts | 184° |
| 2026-05-05 16:35 | 27.74963 | -90.02370 | 36025 ft | 495 kts | 184° |
| 2026-05-05 16:36 | 27.68081 | -90.01968 | 36028 ft | 495 kts | 184° |
| 2026-05-05 16:36 | 27.61204 | -90.01568 | 36027 ft | 495 kts | 184° |
| 2026-05-05 16:37 | 27.54322 | -90.01168 | 36036 ft | 495 kts | 184° |
| 2026-05-05 16:37 | 27.47441 | -90.00769 | 36037 ft | 495 kts | 184° |
| 2026-05-05 16:38 | 27.40573 | -90.00371 | 36038 ft | 495 kts | 184° |
| 2026-05-05 16:38 | 27.33696 | -89.99973 | 36032 ft | 494 kts | 184° |
| 2026-05-05 16:39 | 27.26825 | -89.99575 | 36037 ft | 496 kts | 184° |
| 2026-05-05 16:39 | 27.19920 | -89.99177 | 36035 ft | 496 kts | 184° |
| 2026-05-05 16:40 | 27.13026 | -89.98778 | 36037 ft | 496 kts | 184° |
| 2026-05-05 16:40 | 27.06134 | -89.98382 | 36036 ft | 497 kts | 184° |
| 2026-05-05 16:41 | 26.99228 | -89.97984 | 36033 ft | 496 kts | 184° |
| 2026-05-05 16:41 | 26.92324 | -89.97587 | 36037 ft | 496 kts | 183° |
| 2026-05-05 16:42 | 26.85433 | -89.97192 | 36036 ft | 496 kts | 183° |
| 2026-05-05 16:42 | 26.78534 | -89.96796 | 36034 ft | 497 kts | 183° |
| 2026-05-05 16:43 | 26.71636 | -89.96401 | 36033 ft | 496 kts | 183° |
| 2026-05-05 16:43 | 26.64739 | -89.96006 | 36036 ft | 497 kts | 183° |
| 2026-05-05 16:44 | 26.57830 | -89.95612 | 36037 ft | 497 kts | 183° |
| 2026-05-05 16:44 | 26.50931 | -89.95218 | 36037 ft | 496 kts | 183° |
| 2026-05-05 16:45 | 26.44038 | -89.94825 | 36035 ft | 496 kts | 183° |
| 2026-05-05 16:45 | 26.37145 | -89.94433 | 36036 ft | 497 kts | 182° |
| 2026-05-05 16:46 | 26.30241 | -89.94046 | 36035 ft | 497 kts | 183° |
| 2026-05-05 16:46 | 26.23343 | -89.93660 | 36035 ft | 496 kts | 182° |
| 2026-05-05 16:47 | 26.16449 | -89.93275 | 36037 ft | 496 kts | 182° |
| 2026-05-05 16:47 | 26.09561 | -89.92890 | 36044 ft | 496 kts | 182° |
| 2026-05-05 16:48 | 26.02663 | -89.92505 | 36034 ft | 496 kts | 182° |
| 2026-05-05 16:48 | 25.95766 | -89.92121 | 36035 ft | 496 kts | 182° |
| 2026-05-05 16:49 | 25.88870 | -89.91738 | 36026 ft | 496 kts | 182° |
| 2026-05-05 16:49 | 25.81977 | -89.91354 | 36028 ft | 496 kts | 182° |
| 2026-05-05 16:50 | 25.75084 | -89.90972 | 36027 ft | 496 kts | 182° |
| 2026-05-05 16:50 | 25.68188 | -89.90589 | 36029 ft | 496 kts | 182° |
| 2026-05-05 16:51 | 25.61296 | -89.90207 | 36025 ft | 496 kts | 182° |
| 2026-05-05 16:51 | 25.54410 | -89.89827 | 36026 ft | 496 kts | 182° |
| 2026-05-05 16:52 | 25.47513 | -89.89446 | 36022 ft | 496 kts | 182° |
| 2026-05-05 16:52 | 25.40613 | -89.89066 | 36015 ft | 496 kts | 182° |
| 2026-05-05 16:53 | 25.33766 | -89.88695 | 35992 ft | 495 kts | 182° |
| 2026-05-05 16:53 | 25.26839 | -89.88306 | 36015 ft | 495 kts | 182° |
| 2026-05-05 16:54 | 25.19991 | -89.87930 | 36012 ft | 495 kts | 182° |
| 2026-05-05 16:54 | 25.13117 | -89.87550 | 36029 ft | 495 kts | 182° |
| 2026-05-05 16:55 | 25.06233 | -89.87174 | 36021 ft | 496 kts | 182° |
| 2026-05-05 16:55 | 24.99338 | -89.86796 | 36018 ft | 496 kts | 182° |
| 2026-05-05 16:56 | 24.92439 | -89.86420 | 36036 ft | 495 kts | 182° |
| 2026-05-05 16:56 | 24.85557 | -89.86042 | 36025 ft | 495 kts | 182° |
| 2026-05-05 16:57 | 24.78669 | -89.85665 | 36015 ft | 495 kts | 181° |
| 2026-05-05 16:57 | 24.71787 | -89.85289 | 36016 ft | 495 kts | 181° |
| 2026-05-05 16:58 | 24.64909 | -89.84914 | 36016 ft | 495 kts | 181° |
| 2026-05-05 16:58 | 24.58031 | -89.84540 | 36017 ft | 495 kts | 181° |
| 2026-05-05 16:59 | 24.51157 | -89.84166 | 36017 ft | 494 kts | 181° |
| 2026-05-05 16:59 | 24.44286 | -89.83808 | 36009 ft | 494 kts | 181° |
| 2026-05-05 17:00 | 24.37422 | -89.83453 | 36009 ft | 494 kts | 181° |
| 2026-05-05 17:00 | 24.30553 | -89.83099 | 36012 ft | 494 kts | 181° |
| 2026-05-05 17:01 | 24.23693 | -89.82744 | 36009 ft | 494 kts | 181° |
| 2026-05-05 17:01 | 24.16822 | -89.82390 | 36007 ft | 494 kts | 181° |
| 2026-05-05 17:02 | 24.09970 | -89.82037 | 36010 ft | 494 kts | 181° |
| 2026-05-05 17:02 | 24.03105 | -89.81684 | 36006 ft | 493 kts | 181° |
| 2026-05-05 17:03 | 23.96248 | -89.81332 | 36006 ft | 493 kts | 181° |
| 2026-05-05 17:03 | 23.89392 | -89.80980 | 36000 ft | 493 kts | 181° |
| 2026-05-05 17:04 | 23.82538 | -89.80629 | 35997 ft | 493 kts | 181° |
| 2026-05-05 17:04 | 23.75676 | -89.80274 | 36003 ft | 494 kts | 181° |
| 2026-05-05 17:05 | 23.68813 | -89.79910 | 35998 ft | 494 kts | 181° |
| 2026-05-05 17:05 | 23.61944 | -89.79547 | 36000 ft | 494 kts | 181° |
| 2026-05-05 17:06 | 23.55079 | -89.79183 | 36000 ft | 494 kts | 181° |
| 2026-05-05 17:06 | 23.48208 | -89.78820 | 36000 ft | 494 kts | 181° |
| 2026-05-05 17:07 | 23.41338 | -89.78458 | 35998 ft | 494 kts | 181° |
| 2026-05-05 17:07 | 23.34469 | -89.78096 | 35989 ft | 495 kts | 181° |
| 2026-05-05 17:08 | 23.27592 | -89.77734 | 35993 ft | 495 kts | 181° |
| 2026-05-05 17:08 | 23.20713 | -89.77372 | 35991 ft | 495 kts | 180° |
| 2026-05-05 17:09 | 23.13837 | -89.77011 | 35989 ft | 495 kts | 180° |
| 2026-05-05 17:09 | 23.07001 | -89.76652 | 35988 ft | 495 kts | 180° |
| 2026-05-05 17:10 | 23.00076 | -89.76289 | 35994 ft | 495 kts | 180° |
| 2026-05-05 17:10 | 22.93204 | -89.75929 | 35992 ft | 495 kts | 180° |
| 2026-05-05 17:11 | 22.86369 | -89.75572 | 35991 ft | 495 kts | 180° |
| 2026-05-05 17:11 | 22.79489 | -89.75212 | 35994 ft | 495 kts | 180° |
| 2026-05-05 17:12 | 22.72762 | -89.73872 | 35980 ft | 499 kts | 157° |
| 2026-05-05 17:12 | 22.68006 | -89.70286 | 35988 ft | 501 kts | 133° |
| 2026-05-05 17:13 | 22.65866 | -89.67322 | 35952 ft | 499 kts | 118° |
| 2026-05-05 17:13 | 22.64460 | -89.63920 | 35978 ft | 494 kts | 106° |
| 2026-05-05 17:13 | 22.62264 | -89.56837 | 35993 ft | 496 kts | 105° |
| 2026-05-05 17:14 | 22.60141 | -89.49728 | 35986 ft | 496 kts | 105° |
| 2026-05-05 17:14 | 22.58040 | -89.42615 | 35992 ft | 496 kts | 105° |
| 2026-05-05 17:15 | 22.55937 | -89.35503 | 35986 ft | 496 kts | 105° |
| 2026-05-05 17:15 | 22.53844 | -89.28436 | 35985 ft | 496 kts | 105° |
| 2026-05-05 17:16 | 22.51720 | -89.21278 | 35991 ft | 496 kts | 105° |
| 2026-05-05 17:16 | 22.49619 | -89.14209 | 35989 ft | 497 kts | 105° |
| 2026-05-05 17:17 | 22.47499 | -89.07091 | 35989 ft | 497 kts | 105° |
| 2026-05-05 17:17 | 22.45380 | -88.99986 | 35991 ft | 497 kts | 105° |
| 2026-05-05 17:18 | 22.43255 | -88.92875 | 35991 ft | 496 kts | 105° |
| 2026-05-05 17:18 | 22.41131 | -88.85780 | 35997 ft | 497 kts | 105° |
| 2026-05-05 17:19 | 22.39003 | -88.78684 | 35985 ft | 496 kts | 105° |
| 2026-05-05 17:19 | 22.36875 | -88.71599 | 35987 ft | 496 kts | 105° |
| 2026-05-05 17:20 | 22.34747 | -88.64529 | 35989 ft | 496 kts | 105° |
| 2026-05-05 17:20 | 22.32644 | -88.57552 | 35749 ft | 495 kts | 105° |
| 2026-05-05 17:21 | 22.31579 | -88.54023 | 34789 ft | 498 kts | 105° |
| 2026-05-05 17:21 | 22.30496 | -88.50439 | 33642 ft | 500 kts | 105° |
| 2026-05-05 17:21 | 22.29425 | -88.46900 | 32586 ft | 494 kts | 105° |
| 2026-05-05 17:22 | 22.27314 | -88.39930 | 30610 ft | 479 kts | 105° |
| 2026-05-05 17:22 | 22.26294 | -88.36562 | 29937 ft | 466 kts | 106° |
| 2026-05-05 17:22 | 22.25276 | -88.33205 | 29359 ft | 477 kts | 106° |
| 2026-05-05 17:22 | 22.24235 | -88.29779 | 28653 ft | 482 kts | 106° |
| 2026-05-05 17:23 | 22.23191 | -88.26342 | 27995 ft | 483 kts | 106° |
| 2026-05-05 17:23 | 22.22143 | -88.22898 | 27317 ft | 482 kts | 106° |
| 2026-05-05 17:23 | 22.21114 | -88.19517 | 26647 ft | 479 kts | 107° |
| 2026-05-05 17:23 | 22.20066 | -88.16077 | 25956 ft | 474 kts | 107° |
| 2026-05-05 17:24 | 22.19040 | -88.12713 | 25292 ft | 470 kts | 107° |
| 2026-05-05 17:24 | 22.18022 | -88.09375 | 24618 ft | 467 kts | 107° |
| 2026-05-05 17:24 | 22.17022 | -88.06100 | 23954 ft | 464 kts | 107° |
| 2026-05-05 17:24 | 22.16001 | -88.02759 | 23451 ft | 458 kts | 107° |
| 2026-05-05 17:25 | 22.15032 | -87.99587 | 23222 ft | 446 kts | 107° |
| 2026-05-05 17:25 | 22.14378 | -87.97465 | 23056 ft | 438 kts | 108° |
| 2026-05-05 17:25 | 22.12409 | -87.93712 | 22331 ft | 436 kts | 131° |
| 2026-05-05 17:25 | 22.10242 | -87.91441 | 21839 ft | 432 kts | 136° |
| 2026-05-05 17:26 | 22.08054 | -87.89234 | 21283 ft | 430 kts | 136° |
| 2026-05-05 17:26 | 22.05863 | -87.87047 | 20724 ft | 428 kts | 137° |
| 2026-05-05 17:26 | 22.03678 | -87.84880 | 20172 ft | 426 kts | 136° |
| 2026-05-05 17:26 | 22.01501 | -87.82726 | 19620 ft | 424 kts | 136° |
| 2026-05-05 17:27 | 21.99334 | -87.80585 | 19071 ft | 422 kts | 136° |
| 2026-05-05 17:27 | 21.97178 | -87.78455 | 18514 ft | 420 kts | 136° |
| 2026-05-05 17:27 | 21.95027 | -87.76333 | 17960 ft | 418 kts | 136° |
| 2026-05-05 17:27 | 21.92894 | -87.74229 | 17426 ft | 415 kts | 136° |
| 2026-05-05 17:28 | 21.90770 | -87.72135 | 16887 ft | 413 kts | 136° |
| 2026-05-05 17:28 | 21.88674 | -87.70069 | 16315 ft | 404 kts | 136° |
| 2026-05-05 17:28 | 21.86624 | -87.68049 | 15830 ft | 395 kts | 136° |
| 2026-05-05 17:28 | 21.84620 | -87.66076 | 15343 ft | 386 kts | 137° |
| 2026-05-05 17:29 | 21.82654 | -87.64140 | 14840 ft | 378 kts | 137° |
| 2026-05-05 17:29 | 21.80735 | -87.62251 | 14373 ft | 370 kts | 137° |
| 2026-05-05 17:29 | 21.78849 | -87.60397 | 13885 ft | 364 kts | 137° |
| 2026-05-05 17:29 | 21.76994 | -87.58572 | 13411 ft | 360 kts | 137° |
| 2026-05-05 17:30 | 21.75155 | -87.56764 | 12964 ft | 355 kts | 137° |
| 2026-05-05 17:30 | 21.73348 | -87.54989 | 12494 ft | 348 kts | 137° |
| 2026-05-05 17:30 | 21.71594 | -87.53266 | 12035 ft | 336 kts | 138° |
| 2026-05-05 17:30 | 21.69924 | -87.51627 | 11633 ft | 324 kts | 138° |
| 2026-05-05 17:31 | 21.68286 | -87.50019 | 11226 ft | 314 kts | 138° |
| 2026-05-05 17:31 | 21.66697 | -87.48458 | 10820 ft | 304 kts | 138° |
| 2026-05-05 17:31 | 21.65156 | -87.46947 | 10441 ft | 295 kts | 138° |
| 2026-05-05 17:31 | 21.63617 | -87.45532 | 10030 ft | 289 kts | 142° |
| 2026-05-05 17:32 | 21.62051 | -87.44209 | 9651 ft | 291 kts | 142° |
| 2026-05-05 17:32 | 21.60441 | -87.42837 | 9269 ft | 292 kts | 142° |
| 2026-05-05 17:32 | 21.58880 | -87.41501 | 8902 ft | 292 kts | 142° |
| 2026-05-05 17:32 | 21.57295 | -87.40143 | 8525 ft | 291 kts | 142° |
| 2026-05-05 17:33 | 21.55710 | -87.38781 | 8163 ft | 291 kts | 142° |
| 2026-05-05 17:33 | 21.54129 | -87.37424 | 7772 ft | 291 kts | 142° |
| 2026-05-05 17:33 | 21.52555 | -87.36072 | 7387 ft | 286 kts | 142° |
| 2026-05-05 17:33 | 21.51027 | -87.34761 | 7026 ft | 276 kts | 142° |
| 2026-05-05 17:34 | 21.49553 | -87.33496 | 6685 ft | 267 kts | 142° |
| 2026-05-05 17:34 | 21.48102 | -87.32251 | 6354 ft | 267 kts | 142° |
| 2026-05-05 17:34 | 21.46646 | -87.31002 | 6017 ft | 269 kts | 141° |
| 2026-05-05 17:34 | 21.45186 | -87.29749 | 5665 ft | 268 kts | 142° |
| 2026-05-05 17:35 | 21.43733 | -87.28505 | 5317 ft | 268 kts | 141° |
| 2026-05-05 17:35 | 21.42273 | -87.27253 | 4972 ft | 268 kts | 141° |
| 2026-05-05 17:35 | 21.40812 | -87.26001 | 4610 ft | 268 kts | 141° |
| 2026-05-05 17:35 | 21.39381 | -87.24772 | 4262 ft | 259 kts | 141° |
| 2026-05-05 17:36 | 21.37994 | -87.23623 | 4050 ft | 244 kts | 148° |
| 2026-05-05 17:36 | 21.36539 | -87.22794 | 4046 ft | 234 kts | 153° |
| 2026-05-05 17:36 | 21.35086 | -87.22018 | 4025 ft | 233 kts | 153° |
| 2026-05-05 17:36 | 21.33656 | -87.21248 | 4011 ft | 225 kts | 153° |
| 2026-05-05 17:37 | 21.32294 | -87.20512 | 3984 ft | 214 kts | 153° |
| 2026-05-05 17:37 | 21.31418 | -87.20036 | 4013 ft | 213 kts | 153° |
| 2026-05-05 17:37 | 21.29637 | -87.19106 | 3956 ft | 214 kts | 158° |
| 2026-05-05 17:37 | 21.28224 | -87.18558 | 3655 ft | 219 kts | 159° |
| 2026-05-05 17:38 | 21.26791 | -87.18009 | 3306 ft | 219 kts | 159° |
| 2026-05-05 17:38 | 21.25354 | -87.17453 | 2913 ft | 220 kts | 159° |
| 2026-05-05 17:38 | 21.23939 | -87.16902 | 2516 ft | 217 kts | 159° |
| 2026-05-05 17:38 | 21.22547 | -87.16357 | 2182 ft | 213 kts | 159° |
| 2026-05-05 17:39 | 21.21307 | -87.15678 | 2042 ft | 202 kts | 137° |
| 2026-05-05 17:39 | 21.20406 | -87.14522 | 2074 ft | 204 kts | 126° |
| 2026-05-05 17:39 | 21.19599 | -87.13278 | 1776 ft | 201 kts | 124° |
| 2026-05-05 17:39 | 21.18838 | -87.12078 | 1377 ft | 197 kts | 124° |
| 2026-05-05 17:40 | 21.18111 | -87.10896 | 1253 ft | 182 kts | 123° |
| 2026-05-05 17:40 | 21.17477 | -87.09825 | 1185 ft | 165 kts | 122° |
| 2026-05-05 17:40 | 21.16876 | -87.08801 | 1204 ft | 162 kts | 121° |
| 2026-05-05 17:40 | 21.16238 | -87.07797 | 1160 ft | 164 kts | 128° |
| 2026-05-05 17:41 | 21.15552 | -87.06842 | 1181 ft | 162 kts | 127° |
| 2026-05-05 17:41 | 21.14888 | -87.05863 | 1304 ft | 163 kts | 123° |
| 2026-05-05 17:41 | 21.14274 | -87.04847 | 1307 ft | 162 kts | 122° |
| 2026-05-05 17:41 | 21.13696 | -87.03854 | 1342 ft | 154 kts | 123° |
| 2026-05-05 17:42 | 21.13116 | -87.02898 | 1320 ft | 152 kts | 124° |
| 2026-05-05 17:42 | 21.12532 | -87.01951 | 1306 ft | 152 kts | 124° |
| 2026-05-05 17:42 | 21.11948 | -87.01008 | 1302 ft | 152 kts | 124° |
| 2026-05-05 17:42 | 21.11360 | -87.00061 | 1300 ft | 152 kts | 124° |
| 2026-05-05 17:43 | 21.10774 | -86.99118 | 1299 ft | 152 kts | 124° |
| 2026-05-05 17:43 | 21.10187 | -86.98172 | 1288 ft | 153 kts | 125° |
| 2026-05-05 17:43 | 21.09591 | -86.97217 | 1309 ft | 154 kts | 125° |
| 2026-05-05 17:43 | 21.09041 | -86.96273 | 1325 ft | 147 kts | 111° |
| 2026-05-05 17:44 | 21.08961 | -86.95171 | 896 ft | 149 kts | 98° |
| 2026-05-05 17:44 | 21.08440 | -86.94301 | 849 ft | 143 kts | 139° |
| 2026-05-05 17:44 | 21.07651 | -86.93625 | 766 ft | 147 kts | 141° |
| 2026-05-05 17:44 | 21.06961 | -86.92854 | 644 ft | 141 kts | 127° |
| 2026-05-05 17:45 | 21.06377 | -86.92021 | 474 ft | 138 kts | 124° |
| 2026-05-05 17:45 | 21.05827 | -86.91161 | 372 ft | 143 kts | 122° |
| 2026-05-05 17:45 | 21.05279 | -86.90284 | 293 ft | 141 kts | 125° |
| 2026-05-05 17:45 | 21.04733 | -86.89422 | 165 ft | 141 kts | 124° |
| 2026-05-05 17:46 | 21.04196 | -86.88555 | 41 ft | 136 kts | 123° |
| 2026-05-05 17:46 | 21.03811 | -86.87943 | 40 ft | 71 kts | 123° |
| 2026-05-05 17:46 | 21.03616 | -86.87590 | 42 ft | 50 kts | 107° |
| 2026-05-05 17:46 | 21.03604 | -86.87386 | 44 ft | 21 kts | 82° |
| 2026-05-05 17:47 | 21.03634 | -86.87363 | 45 ft | 4 kts | 334° |
| 2026-05-05 17:47 | 21.03679 | -86.87425 | 44 ft | 20 kts | 301° |
| 2026-05-05 17:47 | 21.03776 | -86.87581 | 44 ft | 29 kts | 306° |
| 2026-05-05 17:47 | 21.03896 | -86.87763 | 45 ft | 32 kts | 304° |
| 2026-05-05 17:48 | 21.04019 | -86.87971 | 44 ft | 34 kts | 302° |
| 2026-05-05 17:48 | 21.04163 | -86.88191 | 44 ft | 37 kts | 304° |
| 2026-05-05 17:48 | 21.04306 | -86.88422 | 44 ft | 38 kts | 303° |
| 2026-05-05 17:48 | 21.04463 | -86.88615 | 45 ft | 23 kts | 356° |
| 2026-05-05 17:49 | 21.04599 | -86.88532 | 44 ft | 25 kts | 34° |
| 2026-05-05 17:49 | 21.04746 | -86.88425 | 44 ft | 21 kts | 34° |
| 2026-05-05 17:49 | 21.04853 | -86.88351 | 45 ft | 19 kts | 32° |
| 2026-05-05 17:49 | 21.04919 | -86.88274 | 45 ft | 9 kts | 111° |
| 2026-05-05 17:50 | 21.04887 | -86.88222 | 44 ft | 8 kts | 124° |
| 2026-05-05 17:50 | 21.04880 | -86.88211 | 45 ft | 0 kts | 122° |